Time;durP1;ratioP1;P1;durP2;ratioP2;P2;SDS_P1;SDS_P2;PMS_P1;PMS_P2;Temp;Humidity;BMP_temperature;BMP_pressure;BME280_temperature;BME280_humidity;BME280_pressure;Samples;Min_cycle;Max_cycle;Signal;HPM_P1;HPM_P2
2022/04/21 00:01:13;;;;;;;26.27;15.83;;;;;;;6.95;100.00;149404.48;1687102;83;21188;-67
2022/04/21 00:03:41;;;;;;;21.82;15.15;;;;;;;6.94;100.00;149401.91;1686443;84;21066;-67
2022/04/21 00:06:09;;;;;;;25.40;15.58;;;;;;;6.93;100.00;149400.63;1687016;84;21137;-67
2022/04/21 00:08:37;;;;;;;20.90;14.33;;;;;;;6.92;100.00;149396.73;1686786;84;21089;-65
2022/04/21 00:11:06;;;;;;;26.82;15.50;;;;;;;6.90;100.00;149391.56;1686912;84;21019;-64
2022/04/21 00:13:36;;;;;;;26.33;15.72;;;;;;;6.87;100.00;149386.37;1686663;84;21205;-64
2022/04/21 00:16:05;;;;;;;20.27;13.38;;;;;;;6.84;100.00;149378.63;1686579;85;21058;-64
2022/04/21 00:18:34;;;;;;;24.80;16.05;;;;;;;6.83;100.00;149376.03;1686132;83;21554;-66
2022/04/21 00:21:02;;;;;;;25.45;15.78;;;;;;;6.80;100.00;149368.28;1686893;84;20915;-66
2022/04/21 00:23:30;;;;;;;22.52;14.83;;;;;;;6.80;100.00;149368.28;1691352;84;21057;-64
2022/04/21 00:26:03;;;;;;;29.92;14.85;;;;;;;6.79;100.00;149364.38;1697082;84;21103;-64
2022/04/21 00:28:31;;;;;;;27.58;15.70;;;;;;;6.80;100.00;149368.28;1697152;83;20942;-65
2022/04/21 00:30:59;;;;;;;27.48;16.23;;;;;;;6.79;100.00;149365.69;1696479;84;21084;-64
2022/04/21 00:33:26;;;;;;;27.52;14.98;;;;;;;6.76;100.00;149356.63;1695971;84;21566;-65
2022/04/21 00:35:53;;;;;;;21.12;14.50;;;;;;;6.74;100.00;149352.72;1696268;83;21364;-67
2022/04/21 00:38:22;;;;;;;22.05;15.43;;;;;;;6.73;100.00;149350.13;1696188;83;21066;-67
2022/04/21 00:40:50;;;;;;;24.07;15.88;;;;;;;6.70;100.00;149343.70;1696255;84;21132;-67
2022/04/21 00:43:21;;;;;;;20.52;14.35;;;;;;;6.71;100.00;149344.97;1696270;84;21499;-66
2022/04/21 00:45:49;;;;;;;26.33;14.30;;;;;;;6.68;100.00;149337.20;1696492;84;21273;-66
2022/04/21 00:48:16;;;;;;;18.82;12.73;;;;;;;6.66;100.00;149332.03;1696495;84;20998;-64
2022/04/21 00:50:44;;;;;;;21.95;12.98;;;;;;;6.67;100.00;149334.62;1696093;84;21086;-64
2022/04/21 00:53:12;;;;;;;22.52;12.63;;;;;;;6.69;100.00;149341.11;1696549;83;21788;-64
2022/04/21 00:55:39;;;;;;;16.97;11.60;;;;;;;6.71;100.00;149344.97;1696370;84;21081;-65
2022/04/21 00:58:06;;;;;;;18.92;12.40;;;;;;;6.72;100.00;149347.55;1696919;84;21002;-62
2022/04/21 01:00:34;;;;;;;17.67;12.95;;;;;;;6.75;100.00;149355.36;1696858;84;21232;-64
2022/04/21 01:03:03;;;;;;;19.52;13.03;;;;;;;6.74;100.00;149352.72;1697250;84;20990;-65
2022/04/21 01:05:33;;;;;;;18.92;12.65;;;;;;;6.74;100.00;149352.72;1696842;84;21044;-67
2022/04/21 01:08:04;;;;;;;19.07;12.60;;;;;;;6.74;100.00;149352.72;1697017;84;21590;-67
2022/04/21 01:10:37;;;;;;;20.10;12.13;;;;;;;6.76;100.00;149356.63;1697050;84;21017;-64
2022/04/21 01:13:06;;;;;;;17.60;12.33;;;;;;;6.75;100.00;149355.36;1697366;84;21021;-64
2022/04/21 01:15:35;;;;;;;19.07;12.53;;;;;;;6.78;100.00;149361.80;1697131;84;21249;-65
2022/04/21 01:18:27;;;;;;;21.95;12.95;;;;;;;6.75;100.00;149355.36;1697174;84;21005;-64
2022/04/21 01:20:56;;;;;;;21.93;12.30;;;;;;;6.70;100.00;149342.37;1732349;82;21129;-64
2022/04/21 01:23:25;;;;;;;21.52;11.53;;;;;;;6.68;100.00;149337.20;1732231;81;20971;-65
2022/04/21 01:25:52;;;;;;;18.05;11.68;;;;;;;6.65;100.00;149329.45;1732106;81;21110;-64
2022/04/21 01:28:21;;;;;;;20.10;12.10;;;;;;;6.65;100.00;149329.45;1732111;81;21449;-65
2022/04/21 01:30:55;;;;;;;18.48;12.07;;;;;;;6.64;100.00;149326.88;1732322;81;21006;-67
2022/04/21 01:33:24;;;;;;;18.55;12.35;;;;;;;6.63;100.00;149325.59;1705030;81;21045;-66
2022/04/21 01:35:51;;;;;;;19.55;12.93;;;;;;;6.61;100.00;149320.38;1732452;81;21062;-67
2022/04/21 01:41:12;;;;;;;25.17;13.72;;;;;;;6.65;100.00;149330.77;1732611;81;21443;-66
2022/04/21 01:43:46;;;;;;;22.85;13.75;;;;;;;6.67;100.00;149334.62;1731825;81;25277;-66
2022/04/21 01:46:11;;;;;;;22.07;13.80;;;;;;;6.65;100.00;149330.77;1732506;82;20971;-66
2022/04/21 01:48:38;;;;;;;27.02;14.45;;;;;;;6.65;100.00;149329.45;1732052;82;21085;-66
2022/04/21 01:51:06;;;;;;;21.07;13.85;;;;;;;6.64;100.00;149328.19;1732568;81;21428;-67
2022/04/21 01:53:35;;;;;;;19.67;12.75;;;;;;;6.61;100.00;149320.38;1731959;82;21201;-66
2022/04/21 01:56:02;;;;;;;22.62;14.10;;;;;;;6.59;100.00;149316.53;1732386;81;21045;-66
2022/04/21 01:58:31;;;;;;;21.02;14.23;;;;;;;6.63;100.00;149324.28;1732053;82;20998;-66
2022/04/21 02:00:58;;;;;;;23.10;15.05;;;;;;;6.62;100.00;149321.69;1732376;81;21109;-66
2022/04/21 02:03:28;;;;;;;27.45;15.23;;;;;;;6.57;100.00;149311.34;1732080;81;20998;-66
2022/04/21 02:05:56;;;;;;;22.60;15.18;;;;;;;6.54;100.00;149303.59;1732467;82;21281;-66
2022/04/21 02:08:24;;;;;;;27.27;15.98;;;;;;;6.50;100.00;149293.20;1731979;81;21026;-67
2022/04/21 02:10:53;;;;;;;20.77;14.58;;;;;;;6.49;100.00;149289.36;1732436;82;20978;-66
2022/04/21 02:13:21;;;;;;;25.32;15.75;;;;;;;6.49;100.00;149290.63;1732176;81;20976;-65
2022/04/21 02:15:49;;;;;;;27.32;15.48;;;;;;;6.49;100.00;149290.63;1732130;81;21042;-66
2022/04/21 02:18:17;;;;;;;24.00;15.60;;;;;;;6.50;100.00;149291.94;1732243;82;21282;-65
2022/04/21 02:20:44;;;;;;;25.12;15.38;;;;;;;6.50;100.00;149293.20;1727143;82;21031;-63
2022/04/21 02:23:11;;;;;;;22.13;15.15;;;;;;;6.50;100.00;149291.94;1726935;81;20963;-64
2022/04/21 02:25:41;;;;;;;24.35;15.50;;;;;;;6.49;100.00;149290.63;1726311;81;21062;-66
2022/04/21 02:28:09;;;;;;;24.65;16.85;;;;;;;6.49;100.00;149290.63;1727417;83;20975;-63
2022/04/21 02:30:36;;;;;;;23.90;16.40;;;;;;;6.49;100.00;149289.36;1726629;83;21223;-65
2022/04/21 02:33:03;;;;;;;21.87;14.85;;;;;;;6.50;100.00;149293.20;1727120;82;21010;-66
2022/04/21 02:35:30;;;;;;;24.63;15.43;;;;;;;6.50;100.00;149293.20;1726048;81;21065;-66
2022/04/21 02:37:59;;;;;;;26.05;16.32;;;;;;;6.51;100.00;149295.80;1726575;81;21048;-67
2022/04/21 02:40:27;;;;;;;25.80;15.85;;;;;;;6.52;100.00;149297.11;1726039;81;21058;-66
2022/04/21 02:42:55;;;;;;;24.75;15.88;;;;;;;6.53;100.00;149301.02;1726372;81;21355;-67
2022/04/21 02:45:24;;;;;;;22.82;15.50;;;;;;;6.54;100.00;149303.59;1726491;82;20860;-66
2022/04/21 02:47:51;;;;;;;24.67;15.15;;;;;;;6.52;100.00;149298.44;1726706;81;21033;-66
2022/04/21 02:50:20;;;;;;;24.27;14.05;;;;;;;6.50;100.00;149291.94;1726733;81;20968;-66
2022/04/21 02:52:47;;;;;;;23.15;13.10;;;;;;;6.49;100.00;149290.63;1726634;82;21045;-63
2022/04/21 02:58:01;;;;;;;19.40;12.03;;;;;;;6.48;100.00;149288.03;1726849;82;21636;-64
2022/04/21 03:00:29;;;;;;;21.40;12.70;;;;;;;6.48;100.00;149288.03;1726716;83;21042;-64
2022/04/21 03:02:57;;;;;;;22.62;14.40;;;;;;;6.46;100.00;149282.88;1726767;82;21093;-67
2022/04/21 03:05:24;;;;;;;19.80;13.25;;;;;;;6.46;100.00;149282.88;1726393;83;21073;-64
2022/04/21 03:07:54;;;;;;;16.95;11.12;;;;;;;6.44;100.00;149277.69;1726568;82;21215;-64
2022/04/21 03:10:22;;;;;;;18.10;11.80;;;;;;;6.45;100.00;149280.28;1727124;81;21295;-66
2022/04/21 03:12:51;;;;;;;20.60;12.90;;;;;;;6.44;100.00;149277.69;1726828;82;21071;-66
2022/04/21 03:15:19;;;;;;;21.00;14.28;;;;;;;6.43;100.00;149275.11;1726629;81;20999;-67
2022/04/21 03:17:48;;;;;;;23.47;14.75;;;;;;;6.43;100.00;149275.11;1726571;81;21003;-65
2022/04/21 03:25:47;;;;;;;23.65;15.15;;;;;;;6.37;100.00;149259.59;1731897;81;21121;-63
2022/04/21 03:28:14;;;;;;;23.27;15.60;;;;;;;6.33;100.00;149249.27;1732309;81;21007;-62
2022/04/21 03:30:42;;;;;;;24.05;14.93;;;;;;;6.28;100.00;149238.88;1731979;82;21484;-63
2022/04/21 03:33:09;;;;;;;24.72;14.80;;;;;;;6.28;100.00;149238.88;1732501;81;20984;-65
2022/04/21 03:35:37;;;;;;;22.17;14.43;;;;;;;6.25;100.00;149229.84;1731213;81;20994;-66
2022/04/21 03:38:05;;;;;;;23.07;14.55;;;;;;;6.22;100.00;149223.37;1731817;82;21070;-65
2022/04/21 03:40:32;;;;;;;23.55;16.25;;;;;;;6.22;100.00;149223.37;1731818;82;21142;-65
2022/04/21 03:43:00;;;;;;;24.87;16.05;;;;;;;6.22;100.00;149223.37;1732327;81;21034;-65
2022/04/21 03:45:27;;;;;;;23.80;15.40;;;;;;;6.21;100.00;149219.52;1731836;81;21599;-64
2022/04/21 03:47:54;;;;;;;24.70;16.73;;;;;;;6.19;100.00;149215.62;1732030;81;21538;-63
2022/04/21 03:50:21;;;;;;;24.67;15.83;;;;;;;6.22;100.00;149222.09;1732626;82;20967;-63
2022/04/21 03:52:49;;;;;;;24.43;15.15;;;;;;;6.23;100.00;149225.95;1732117;81;21673;-65
2022/04/21 03:55:17;;;;;;;24.70;15.15;;;;;;;6.30;100.00;149242.78;1732377;82;21050;-65
2022/04/21 03:57:46;;;;;;;25.48;13.72;;;;;;;6.36;100.00;149257.02;1731932;82;20999;-66
2022/04/21 04:00:15;;;;;;;20.35;12.90;;;;;;;6.45;100.00;149280.28;1732270;82;21034;-67
2022/04/21 04:02:42;;;;;;;20.50;13.08;;;;;;;6.57;100.00;149311.34;1732558;81;21141;-67
2022/04/21 04:05:10;;;;;;;19.32;12.25;;;;;;;6.71;100.00;149344.97;1732469;81;20998;-66
2022/04/21 04:13:12;;;;;;;18.73;12.37;;;;;;;7.20;100.00;149467.92;1731942;82;20883;-65
2022/04/21 04:15:41;;;;;;;17.92;11.40;;;;;;;7.36;100.00;149508.03;1731321;81;21352;-63
2022/04/21 04:18:09;;;;;;;16.73;11.00;;;;;;;7.50;100.00;149541.72;1732036;81;21050;-64
2022/04/21 04:20:36;;;;;;;13.98;10.08;;;;;;;7.62;100.00;149572.77;1731389;82;21354;-63
2022/04/21 04:23:05;;;;;;;15.83;9.85;;;;;;;7.74;100.00;149603.86;1732396;82;21050;-64
2022/04/21 04:25:32;;;;;;;15.08;10.03;;;;;;;7.88;100.00;149638.83;1732398;81;20984;-64
2022/04/21 04:28:00;;;;;;;14.28;9.48;;;;;;;8.03;100.00;149676.38;1732225;81;21066;-66
2022/04/21 04:30:27;;;;;;;14.58;9.30;;;;;;;8.19;100.00;149715.25;1731741;81;21022;-64
2022/04/21 04:32:54;;;;;;;12.00;8.30;;;;;;;8.38;100.00;149761.89;1732301;82;21090;-64
2022/04/21 04:35:22;;;;;;;12.47;9.00;;;;;;;8.52;100.00;149798.23;1732497;82;21948;-63
2022/04/21 04:37:50;;;;;;;16.37;10.20;;;;;;;8.69;100.00;149839.67;1732301;81;21034;-64
2022/04/21 04:40:20;;;;;;;15.00;10.05;;;;;;;8.84;100.00;149878.56;1732494;82;20982;-64
2022/04/21 04:42:47;;;;;;;14.03;9.25;;;;;;;9.01;99.67;149921.31;1731491;82;21034;-64
2022/04/21 04:48:01;;;;;;;12.65;7.72;;;;;;;9.41;97.79;150021.17;1732132;82;21214;-64
2022/04/21 04:50:28;;;;;;;11.95;8.18;;;;;;;9.62;96.47;150073.05;1731645;81;21035;-64
2022/04/21 04:53:01;;;;;;;14.95;7.90;;;;;;;9.82;95.57;150122.28;1732106;82;21005;-63
2022/04/21 04:55:30;;;;;;;11.88;8.05;;;;;;;9.99;94.22;150166.39;1732046;82;20941;-65
2022/04/21 04:57:59;;;;;;;14.45;8.10;;;;;;;10.21;93.08;150220.88;1732193;81;20979;-67
2022/04/21 05:00:28;;;;;;;13.25;7.05;;;;;;;10.42;91.95;150272.83;1731986;81;21876;-67
2022/04/21 05:02:56;;;;;;;11.68;8.35;;;;;;;10.62;90.73;150322.14;1732109;82;21583;-66
2022/04/21 05:05:24;;;;;;;10.08;7.33;;;;;;;10.77;89.41;150359.77;1732340;82;21038;-65
2022/04/21 05:07:52;;;;;;;9.30;7.05;;;;;;;10.89;88.53;150392.22;1731763;81;21034;-63
2022/04/21 05:10:21;;;;;;;9.28;7.70;;;;;;;10.95;87.17;150406.50;1732266;82;20940;-66
2022/04/21 05:12:50;;;;;;;10.18;7.10;;;;;;;10.99;86.18;150415.59;1731930;82;20967;-65
2022/04/21 05:15:18;;;;;;;11.97;8.18;;;;;;;11.04;85.46;150428.58;1732304;82;21003;-67
2022/04/21 05:17:48;;;;;;;10.55;7.40;;;;;;;11.08;84.38;150438.94;1731861;81;21519;-65
2022/04/21 05:20:17;;;;;;;9.80;7.37;;;;;;;11.13;84.20;150451.92;1730981;81;21081;-65
2022/04/21 05:22:47;;;;;;;9.63;7.25;;;;;;;11.17;83.69;150462.34;1726677;83;21035;-64
2022/04/21 05:25:15;;;;;;;11.60;7.75;;;;;;;11.27;83.47;150485.69;1726897;81;22669;-64
2022/04/21 05:27:44;;;;;;;12.60;8.35;;;;;;;11.39;83.16;150515.56;1726619;82;21026;-64
2022/04/21 05:33:00;;;;;;;10.88;8.48;;;;;;;11.77;81.77;150610.34;1726736;81;20983;-64
2022/04/21 05:35:29;;;;;;;11.45;7.85;;;;;;;12.00;80.78;150670.09;1726370;81;21515;-65
2022/04/21 05:38:01;;;;;;;10.50;7.05;;;;;;;12.22;79.46;150724.70;1726204;81;21014;-65
2022/04/21 05:40:29;;;;;;;10.20;7.75;;;;;;;12.46;77.97;150784.47;1715933;83;21087;-64
2022/04/21 05:42:56;;;;;;;7.85;6.20;;;;;;;12.72;76.74;150849.48;1726723;81;21383;-67
2022/04/21 05:45:24;;;;;;;8.95;6.30;;;;;;;12.98;74.75;150914.47;1726604;81;20968;-65
2022/04/21 05:47:54;;;;;;;9.93;6.97;;;;;;;13.21;73.69;150972.94;1726750;81;21070;-67
2022/04/21 05:50:22;;;;;;;8.95;6.87;;;;;;;13.46;72.61;151035.41;1727054;81;21717;-65
2022/04/21 05:52:50;;;;;;;9.00;6.05;;;;;;;13.71;71.51;151099.14;1726937;82;22155;-65
2022/04/21 05:55:20;;;;;;;8.48;6.35;;;;;;;13.93;70.27;151153.77;1727113;82;20987;-65
2022/04/21 05:57:48;;;;;;;6.87;5.08;;;;;;;14.16;68.81;151211.00;1726640;82;21039;-67
2022/04/21 06:00:18;;;;;;;7.62;5.95;;;;;;;14.29;67.43;151244.84;1726824;82;20990;-67
2022/04/21 06:02:45;;;;;;;9.03;6.03;;;;;;;14.40;66.24;151270.84;1726765;83;21230;-67
2022/04/21 06:05:12;;;;;;;8.08;6.17;;;;;;;14.45;65.56;151283.84;1727382;81;20940;-67
2022/04/21 06:07:39;;;;;;;9.63;6.10;;;;;;;14.47;65.21;151289.05;1726599;83;21090;-67
2022/04/21 06:10:08;;;;;;;7.67;5.97;;;;;;;14.43;64.33;151279.97;1727118;83;21004;-68
2022/04/21 06:12:38;;;;;;;9.95;5.97;;;;;;;14.31;63.80;151250.05;1726838;81;21528;-65
2022/04/21 06:15:06;;;;;;;7.30;5.80;;;;;;;14.20;63.72;151221.41;1726888;81;21243;-66
2022/04/21 06:17:33;;;;;;;8.13;6.40;;;;;;;14.09;63.45;151192.81;1726903;82;21035;-66
2022/04/21 06:20:03;;;;;;;10.63;6.85;;;;;;;13.96;63.63;151160.28;1726898;82;20927;-66
2022/04/21 06:22:31;;;;;;;9.55;6.40;;;;;;;13.86;63.66;151135.58;1726991;83;20982;-66
2022/04/21 06:25:00;;;;;;;11.35;6.72;;;;;;;13.79;64.11;151117.33;1726985;81;21003;-66
2022/04/21 06:27:27;;;;;;;8.60;6.70;;;;;;;13.73;64.46;151104.34;1726625;81;21220;-66
2022/04/21 06:29:56;;;;;;;8.30;6.12;;;;;;;13.73;64.79;151104.34;1726775;81;21236;-66
2022/04/21 06:32:25;;;;;;;8.18;6.50;;;;;;;13.78;64.92;151114.72;1726666;81;20948;-67
2022/04/21 06:34:52;;;;;;;8.75;6.10;;;;;;;13.86;64.82;151136.84;1726844;81;21050;-67
2022/04/21 06:37:21;;;;;;;7.15;5.62;;;;;;;13.90;64.48;151145.97;1726748;81;21330;-66
2022/04/21 06:39:50;;;;;;;7.78;5.97;;;;;;;13.95;63.12;151158.97;1726509;82;21626;-67
2022/04/21 06:42:17;;;;;;;9.30;5.53;;;;;;;13.87;62.47;151138.17;1726896;82;21493;-66
2022/04/21 06:50:18;;;;;;;7.58;5.58;;;;;;;13.79;62.33;151117.33;1726910;82;21008;-67
2022/04/21 06:52:46;;;;;;;8.25;5.30;;;;;;;13.84;61.69;151130.38;1726762;81;21110;-67
2022/04/21 06:55:15;;;;;;;7.72;5.05;;;;;;;13.96;60.91;151160.28;1726991;82;20943;-68
2022/04/21 06:57:44;;;;;;;7.90;5.42;;;;;;;14.07;60.27;151187.61;1725959;82;21014;-67
2022/04/21 07:00:13;;;;;;;7.83;5.28;;;;;;;14.20;59.78;151220.13;1726100;81;20995;-67
2022/04/21 07:02:41;;;;;;;9.20;5.20;;;;;;;14.32;59.23;151251.33;1739018;80;21060;-67
2022/04/21 07:05:11;;;;;;;7.58;5.42;;;;;;;14.46;59.21;151286.45;1727018;82;21572;-67
2022/04/21 07:07:39;;;;;;;6.95;5.58;;;;;;;14.59;59.51;151319.03;1725040;83;20995;-66
2022/04/21 07:10:10;;;;;;;6.80;5.55;;;;;;;14.77;59.38;151364.61;1725141;83;20991;-66
2022/04/21 07:12:38;;;;;;;6.22;4.97;;;;;;;14.92;59.05;151401.03;1730858;81;21000;-67
2022/04/21 07:15:09;;;;;;;8.08;4.90;;;;;;;15.09;57.95;151445.30;1740564;82;21130;-67
2022/04/21 07:17:36;;;;;;;6.30;4.78;;;;;;;15.24;57.17;151481.77;1725054;83;21138;-67
2022/04/21 07:20:07;;;;;;;8.60;4.78;;;;;;;15.35;56.29;151510.38;1725171;83;21066;-67
2022/04/21 07:22:34;;;;;;;6.60;5.35;;;;;;;15.45;55.13;151535.13;1711450;82;21506;-67
2022/04/21 07:25:07;;;;;;;7.87;4.97;;;;;;;15.55;55.19;151559.88;1674598;84;21089;-68
2022/04/21 07:27:37;;;;;;;6.83;5.20;;;;;;;15.69;54.70;151595.03;1694405;83;21139;-68
2022/04/21 07:30:08;;;;;;;7.53;5.62;;;;;;;15.79;54.13;151621.09;1733428;82;21393;-68
2022/04/21 07:32:36;;;;;;;7.80;5.30;;;;;;;15.90;54.14;151649.78;1733384;81;21125;-67
2022/04/21 07:35:06;;;;;;;7.50;6.10;;;;;;;16.00;53.82;151674.53;1732993;82;21035;-67
2022/04/21 07:37:37;;;;;;;7.67;6.03;;;;;;;16.07;53.79;151691.47;1728225;81;20974;-65
2022/04/21 07:40:07;;;;;;;9.18;5.67;;;;;;;16.14;54.03;151709.75;1733358;81;21042;-64
2022/04/21 07:42:35;;;;;;;9.10;5.83;;;;;;;16.24;53.78;151733.17;1733901;82;20998;-65
2022/04/21 07:45:05;;;;;;;7.83;5.40;;;;;;;16.36;53.82;151763.14;1734106;82;21476;-65
2022/04/21 07:47:32;;;;;;;6.33;5.10;;;;;;;16.40;54.17;151774.88;1740604;80;21123;-65
2022/04/21 07:49:59;;;;;;;9.20;4.95;;;;;;;16.45;54.25;151786.56;1727869;83;21056;-65
2022/04/21 07:55:26;;;;;;;6.12;5.03;;;;;;;16.61;54.56;151828.28;1703103;84;21095;-67
2022/04/21 07:57:55;;;;;;;6.47;5.40;;;;;;;16.70;54.29;151849.17;1713901;82;21294;-65
2022/04/21 08:00:24;;;;;;;7.50;5.10;;;;;;;16.70;54.48;151849.17;1702856;82;20970;-65
2022/04/21 08:02:52;;;;;;;6.67;5.53;;;;;;;16.73;54.50;151856.98;1738680;81;21577;-65
2022/04/21 08:05:21;;;;;;;6.72;5.35;;;;;;;16.75;54.37;151862.19;1731597;82;20982;-66
2022/04/21 08:07:49;;;;;;;6.55;5.70;;;;;;;16.72;54.48;151854.37;1731542;82;21289;-65
2022/04/21 08:10:16;;;;;;;7.08;5.80;;;;;;;16.66;54.62;151840.03;1746877;82;21115;-65
2022/04/21 08:12:47;;;;;;;8.13;6.00;;;;;;;16.54;54.41;151810.06;1722349;83;21020;-67
2022/04/21 08:15:29;;;;;;;7.25;5.80;;;;;;;16.41;54.88;151776.16;1698460;83;21006;-66
2022/04/21 08:17:58;;;;;;;9.30;6.55;;;;;;;16.25;55.13;151737.11;1715719;83;20952;-66
2022/04/21 08:20:27;;;;;;;11.60;6.92;;;;;;;16.07;55.72;151690.19;1734842;82;21184;-66
2022/04/21 08:22:55;;;;;;;9.48;6.62;;;;;;;15.89;56.48;151645.91;1697286;83;21688;-66
2022/04/21 08:33:42;;;;;;;7.33;5.28;;;;;;;15.42;58.67;151528.66;1687984;84;21089;-66
2022/04/21 08:36:11;;;;;;;9.33;5.62;;;;;;;15.36;59.01;151512.98;1686284;82;21092;-66
2022/04/21 08:38:40;;;;;;;7.37;5.70;;;;;;;15.31;59.48;151499.97;1678099;83;20956;-66
2022/04/21 08:41:08;;;;;;;7.92;4.85;;;;;;;15.30;59.92;151497.38;1730735;82;21034;-67
2022/04/21 08:43:36;;;;;;;10.25;5.28;;;;;;;15.36;60.18;151512.98;1725332;82;21017;-66
2022/04/21 08:46:04;;;;;;;8.68;5.00;;;;;;;15.45;60.34;151536.45;1713175;83;21777;-66
2022/04/21 08:48:33;;;;;;;5.58;4.60;;;;;;;15.52;60.43;151552.06;1679346;85;20981;-65
2022/04/21 08:51:01;;;;;;;11.33;5.60;;;;;;;15.59;60.47;151570.33;1684261;83;21051;-65
2022/04/21 08:53:29;;;;;;;7.00;5.42;;;;;;;15.66;60.22;151587.22;1718265;82;21059;-66
2022/04/21 08:55:58;;;;;;;8.45;5.97;;;;;;;15.63;60.09;151579.41;1696192;83;21078;-66
2022/04/21 08:58:26;;;;;;;8.48;5.70;;;;;;;15.66;60.27;151588.55;1716040;83;21241;-66
2022/04/21 09:00:56;;;;;;;9.40;5.87;;;;;;;15.64;60.19;151583.34;1690473;83;21116;-67
2022/04/21 09:03:22;;;;;;;9.58;6.87;;;;;;;15.60;60.65;151572.94;1696303;84;20858;-66
2022/04/21 09:05:51;;;;;;;9.05;7.30;;;;;;;15.61;60.84;151575.53;1715632;82;21752;-67
2022/04/21 09:08:23;;;;;;;9.80;7.47;;;;;;;15.61;60.76;151575.53;1726694;83;21046;-66
2022/04/21 09:11:09;;;;;;;10.45;7.47;;;;;;;15.60;60.91;151572.94;1736695;81;21026;-67
2022/04/21 09:13:42;;;;;;;9.43;7.70;;;;;;;15.59;60.79;151570.33;1743700;81;21008;-67
2022/04/21 09:16:12;;;;;;;11.55;8.98;;;;;;;15.45;60.39;151536.45;1744234;81;21068;-66
2022/04/21 09:18:43;;;;;;;11.53;8.83;;;;;;;15.32;60.87;151502.58;1744199;81;20910;-66
2022/04/21 09:21:15;;;;;;;11.00;8.30;;;;;;;15.31;61.16;151499.97;1727363;81;21680;-65
2022/04/21 09:23:44;;;;;;;12.80;8.43;;;;;;;15.36;61.15;151512.98;1720105;81;20939;-67
2022/04/21 09:26:13;;;;;;;12.53;9.03;;;;;;;15.39;60.94;151520.84;1717603;82;22382;-67
2022/04/21 09:28:42;;;;;;;13.13;8.15;;;;;;;15.42;60.71;151528.66;1689352;82;21023;-65
2022/04/21 09:31:10;;;;;;;14.23;9.68;;;;;;;15.46;60.74;151539.06;1713238;83;21025;-66
2022/04/21 09:33:47;;;;;;;11.25;8.55;;;;;;;15.58;60.77;151567.67;1681826;84;21040;-65
2022/04/21 09:36:12;;;;;;;12.63;9.15;;;;;;;15.70;60.53;151598.95;1727441;81;21462;-66
2022/04/21 09:38:39;;;;;;;16.50;9.20;;;;;;;15.83;60.10;151630.23;1724282;81;20984;-65
2022/04/21 09:41:10;;;;;;;11.30;8.98;;;;;;;15.94;59.90;151658.91;1681515;83;21123;-66
2022/04/21 09:43:41;;;;;;;14.03;10.05;;;;;;;16.09;59.57;151695.41;1713095;82;21099;-66
2022/04/21 09:46:21;;;;;;;12.78;9.50;;;;;;;16.19;58.73;151721.44;1681625;84;21052;-66
2022/04/21 09:48:54;;;;;;;13.03;9.53;;;;;;;16.29;58.13;151746.19;1711179;82;21219;-66
2022/04/21 09:51:25;;;;;;;12.18;9.70;;;;;;;16.32;57.25;151755.33;1681219;83;20922;-66
2022/04/21 09:54:04;;;;;;;11.97;10.20;;;;;;;16.27;57.40;151742.31;1685483;84;21057;-65
2022/04/21 09:56:41;;;;;;;13.60;10.85;;;;;;;16.24;57.49;151734.45;1714506;83;21560;-68
2022/04/21 09:59:11;;;;;;;14.63;10.48;;;;;;;16.17;57.77;151717.56;1694652;83;21124;-65
2022/04/21 10:01:42;;;;;;;13.83;11.00;;;;;;;16.12;57.58;151703.22;1714733;83;21237;-66
2022/04/21 10:04:12;;;;;;;15.75;10.60;;;;;;;15.99;57.63;151670.66;1693884;84;21137;-66
2022/04/21 10:06:40;;;;;;;14.75;10.93;;;;;;;15.81;57.95;151625.03;1713639;83;21422;-66
2022/04/21 10:09:07;;;;;;;13.83;10.18;;;;;;;15.64;58.31;151583.34;1694786;83;21507;-68
2022/04/21 10:11:42;;;;;;;15.68;11.35;;;;;;;15.44;58.51;151532.53;1714475;83;21001;-65
2022/04/21 10:14:07;;;;;;;13.70;10.45;;;;;;;15.18;59.20;151467.44;1694008;83;22056;-66
2022/04/21 10:16:36;;;;;;;12.70;10.58;;;;;;;14.91;59.59;151399.75;1704354;84;21048;-65
2022/04/21 10:19:03;;;;;;;12.45;10.75;;;;;;;14.56;60.48;151311.19;1711033;83;21075;-66
2022/04/21 10:21:48;;;;;;;14.03;11.28;;;;;;;14.24;61.17;151231.81;1709598;83;21115;-66
2022/04/21 10:24:25;;;;;;;12.70;9.73;;;;;;;13.99;62.17;151168.09;1674704;82;20990;-66
2022/04/21 10:26:53;;;;;;;13.10;9.98;;;;;;;13.74;63.17;151106.94;1710645;82;21667;-64
2022/04/21 10:29:23;;;;;;;13.00;10.25;;;;;;;13.60;63.69;151071.83;1712341;83;20886;-64
2022/04/21 10:32:00;;;;;;;12.15;9.30;;;;;;;13.48;64.07;151040.59;1710468;83;20971;-65
2022/04/21 10:34:42;;;;;;;9.70;7.33;;;;;;;13.31;64.25;150997.66;1711249;82;21056;-66
2022/04/21 10:37:20;;;;;;;11.93;8.65;;;;;;;13.10;63.69;150944.36;1714726;83;21086;-65
2022/04/21 10:40:18;;;;;;;10.53;8.83;;;;;;;12.86;64.43;150885.84;1713529;83;20933;-66
2022/04/21 10:42:57;;;;;;;14.03;8.75;;;;;;;12.67;65.09;150837.78;1704156;83;20996;-67
2022/04/21 10:45:31;;;;;;;12.23;8.95;;;;;;;12.48;65.06;150788.39;1714594;83;21096;-64
2022/04/21 10:48:10;;;;;;;13.95;9.35;;;;;;;12.29;65.53;150742.92;1722124;82;21034;-64
2022/04/21 10:50:40;;;;;;;18.15;10.70;;;;;;;12.16;66.38;150709.13;1708286;82;21435;-65
2022/04/21 10:58:50;;;;;;;14.13;11.20;;;;;;;12.03;69.44;150677.92;1705279;83;21095;-66
2022/04/21 11:01:23;;;;;;;13.48;9.60;;;;;;;11.94;69.92;150654.52;1704071;84;21043;-65
2022/04/21 11:04:10;;;;;;;10.57;7.53;;;;;;;11.90;69.85;150645.41;1702550;84;20973;-65
2022/04/21 11:06:42;;;;;;;11.30;6.40;;;;;;;11.96;68.94;150659.70;1706164;84;21277;-67
2022/04/21 11:09:34;;;;;;;8.95;6.15;;;;;;;12.04;67.26;150680.53;1701393;83;20975;-66
2022/04/21 11:12:04;;;;;;;8.20;5.35;;;;;;;12.22;65.95;150723.44;1704649;84;21474;-67
2022/04/21 11:14:33;;;;;;;8.15;5.20;;;;;;;12.42;63.98;150774.08;1706116;83;20966;-66
2022/04/21 11:17:01;;;;;;;8.88;5.17;;;;;;;12.52;62.64;150800.09;1705965;84;21095;-65
2022/04/21 11:19:40;;;;;;;7.53;4.67;;;;;;;12.65;62.06;150831.25;1702159;84;20913;-66
2022/04/21 11:22:08;;;;;;;6.75;4.37;;;;;;;12.78;61.97;150865.06;1706497;83;21185;-66
2022/04/21 11:25:01;;;;;;;6.83;4.58;;;;;;;12.88;61.50;150891.03;1709353;83;21112;-67
2022/04/21 11:27:30;;;;;;;7.35;4.80;;;;;;;12.90;61.45;150896.23;1708727;82;20900;-66
2022/04/21 11:30:08;;;;;;;10.10;3.80;;;;;;;12.96;61.14;150909.27;1708618;83;21440;-66
2022/04/21 11:32:35;;;;;;;5.40;3.55;;;;;;;12.98;60.77;150914.47;1707705;83;21074;-66
2022/04/21 11:35:09;;;;;;;7.20;3.65;;;;;;;13.00;59.99;150920.94;1708627;83;21043;-66
2022/04/21 11:37:57;;;;;;;5.30;3.42;;;;;;;12.99;58.96;150917.06;1708552;83;21059;-67
2022/04/21 11:40:35;;;;;;;4.80;3.10;;;;;;;12.96;58.62;150910.55;1693606;83;20989;-67
2022/04/21 11:43:06;;;;;;;5.35;3.00;;;;;;;12.97;58.56;150911.87;1708435;83;21050;-66
2022/04/21 11:45:37;;;;;;;5.78;2.85;;;;;;;12.97;58.01;150913.14;1722582;82;20880;-65
2022/04/21 11:48:14;;;;;;;4.25;2.70;;;;;;;12.98;57.77;150914.47;1713986;82;21005;-67
2022/04/21 11:50:44;;;;;;;4.35;2.60;;;;;;;12.98;56.85;150914.47;1713887;83;21024;-64
2022/04/21 11:53:20;;;;;;;4.47;3.20;;;;;;;12.94;56.23;150904.08;1714208;83;21039;-65
2022/04/21 11:55:49;;;;;;;5.62;3.33;;;;;;;12.87;55.36;150887.17;1714431;82;21219;-65
2022/04/21 11:58:34;;;;;;;6.60;3.98;;;;;;;12.75;55.61;150858.55;1714588;83;21201;-64
2022/04/21 12:06:50;;;;;;;10.13;5.30;;;;;;;12.58;56.38;150815.67;1713140;82;21597;-65
2022/04/21 12:09:19;;;;;;;9.10;5.72;;;;;;;12.54;57.41;150803.97;1714667;82;21495;-67
2022/04/21 12:11:56;;;;;;;9.78;5.95;;;;;;;12.56;58.80;150810.48;1713718;82;21119;-66
2022/04/21 12:14:23;;;;;;;7.75;6.28;;;;;;;12.60;59.76;150820.88;1713604;82;20930;-65
2022/04/21 12:16:53;;;;;;;9.25;6.78;;;;;;;12.68;60.35;150839.05;1749270;82;21031;-64
2022/04/21 12:19:44;;;;;;;8.10;6.25;;;;;;;12.71;61.24;150846.84;1750071;80;20943;-64